createdAt,value
2019-02-27T00:01:35.334Z,4.00
2019-02-27T00:04:04.166Z,4.00
2019-02-27T00:06:32.146Z,4.00
2019-02-27T00:09:00.513Z,4.00
2019-02-27T00:11:29.238Z,4.10
2019-02-27T00:13:57.994Z,4.10
2019-02-27T00:16:28.119Z,4.10
2019-02-27T00:18:58.581Z,4.10
2019-02-27T00:21:26.246Z,4.20
2019-02-27T00:23:56.886Z,4.20
2019-02-27T00:26:26.762Z,4.20
2019-02-27T00:28:56.139Z,4.20
2019-02-27T00:31:24.856Z,4.20
2019-02-27T00:33:53.031Z,4.20
2019-02-27T00:36:21.332Z,4.10
2019-02-27T00:38:49.414Z,4.10
2019-02-27T00:41:17.510Z,4.00
2019-02-27T00:43:45.603Z,4.00
2019-02-27T00:46:13.996Z,3.90
2019-02-27T00:48:42.602Z,3.80
2019-02-27T00:51:12.035Z,3.80
2019-02-27T00:53:40.908Z,3.80
2019-02-27T00:56:11.942Z,3.80
2019-02-27T00:58:38.856Z,3.70
2019-02-27T01:01:06.961Z,3.70
2019-02-27T01:03:35.142Z,3.70
2019-02-27T01:06:03.676Z,3.70
2019-02-27T01:08:31.786Z,3.70
2019-02-27T01:10:59.826Z,3.70
2019-02-27T01:13:28.881Z,3.70
2019-02-27T01:15:57.834Z,3.70
2019-02-27T01:18:30.526Z,3.70
2019-02-27T01:20:57.067Z,3.60
2019-02-27T01:23:25.070Z,3.60
2019-02-27T01:25:56.052Z,3.50
2019-02-27T01:28:23.105Z,3.50
2019-02-27T01:30:51.222Z,3.60
2019-02-27T01:33:20.618Z,3.60
2019-02-27T01:35:51.286Z,3.60
2019-02-27T01:38:18.714Z,3.60
2019-02-27T01:40:48.990Z,3.60
2019-02-27T01:43:18.045Z,3.60
2019-02-27T01:45:46.372Z,3.60
2019-02-27T01:48:15.470Z,3.70
2019-02-27T01:50:43.659Z,3.70
2019-02-27T01:53:11.735Z,3.70
2019-02-27T01:55:39.822Z,3.70
2019-02-27T01:58:09.500Z,3.80
2019-02-27T02:00:38.450Z,3.70
2019-02-27T02:03:06.639Z,3.70
2019-02-27T02:05:36.026Z,3.70
2019-02-27T02:08:13.505Z,3.70
2019-02-27T02:10:38.757Z,3.70
2019-02-27T02:13:33.054Z,3.70
2019-02-27T02:16:38.989Z,3.70
2019-02-27T02:19:39.512Z,3.70
2019-02-27T02:22:38.918Z,3.70
2019-02-27T02:26:05.045Z,3.60
2019-02-27T02:29:10.019Z,3.70
2019-02-27T02:32:16.811Z,3.70
2019-02-27T02:35:15.765Z,3.70
2019-02-27T02:38:27.043Z,3.70
2019-02-27T02:41:47.999Z,3.70
2019-02-27T02:44:29.435Z,3.70
2019-02-27T02:47:47.198Z,3.70
2019-02-27T02:51:09.443Z,3.70
2019-02-27T02:54:53.318Z,3.70
2019-02-27T02:58:03.341Z,3.70
2019-02-27T03:00:52.262Z,3.60
2019-02-27T03:03:46.350Z,3.60
2019-02-27T03:06:35.095Z,3.50
2019-02-27T03:09:16.650Z,3.50
2019-02-27T03:12:31.376Z,3.40
2019-02-27T03:15:32.747Z,3.40
2019-02-27T03:18:15.752Z,3.40
2019-02-27T03:21:06.132Z,3.30
2019-02-27T03:24:15.086Z,3.30
2019-02-27T03:27:32.458Z,3.30
2019-02-27T03:30:45.435Z,3.30
2019-02-27T03:33:50.923Z,3.30
2019-02-27T03:37:13.113Z,3.20
2019-02-27T03:39:55.026Z,3.20
2019-02-27T03:43:11.350Z,3.20
2019-02-27T03:46:32.676Z,3.10
2019-02-27T03:49:40.834Z,3.10
2019-02-27T03:52:40.241Z,3.00
2019-02-27T03:55:51.788Z,2.90
2019-02-27T03:59:06.344Z,2.90
2019-02-27T04:01:48.071Z,2.80
2019-02-27T04:04:29.560Z,2.80
2019-02-27T04:07:32.624Z,2.70
2019-02-27T04:10:01.102Z,2.70
2019-02-27T04:12:30.331Z,2.70
2019-02-27T04:14:58.461Z,2.70
2019-02-27T04:17:28.977Z,2.70
2019-02-27T04:19:57.202Z,2.60
2019-02-27T04:22:27.259Z,2.60
2019-02-27T04:24:57.674Z,2.60
2019-02-27T04:27:27.288Z,2.50
2019-02-27T04:29:56.595Z,2.50
2019-02-27T04:32:24.787Z,2.50
2019-02-27T04:34:52.934Z,2.50
2019-02-27T04:37:21.203Z,2.50
2019-02-27T04:39:50.491Z,2.50
2019-02-27T04:42:22.957Z,2.50
2019-02-27T04:44:51.433Z,2.50
2019-02-27T04:47:21.454Z,2.60
2019-02-27T04:49:50.550Z,2.60
2019-02-27T04:52:18.786Z,2.50
2019-02-27T04:54:46.816Z,2.50
2019-02-27T04:57:14.999Z,2.50
2019-02-27T04:59:44.353Z,2.50
2019-02-27T05:02:14.654Z,2.50
2019-02-27T05:04:42.528Z,2.60
2019-02-27T05:07:10.574Z,2.60
2019-02-27T05:09:39.745Z,2.60
2019-02-27T05:12:10.443Z,2.70
2019-02-27T05:14:38.591Z,2.70
2019-02-27T05:17:06.847Z,2.70
2019-02-27T05:19:37.241Z,2.60
2019-02-27T05:22:05.758Z,2.60
2019-02-27T05:24:34.196Z,2.60
2019-02-27T05:27:03.596Z,2.60
2019-02-27T05:29:31.839Z,2.50
2019-02-27T05:32:00.007Z,2.50
2019-02-27T05:34:27.942Z,2.50
2019-02-27T05:36:55.967Z,2.50
2019-02-27T05:39:24.122Z,2.40
